createdAt,value
2017-12-25T00:02:07.091Z,4.63
2017-12-25T00:04:35.351Z,4.23
2017-12-25T00:07:03.624Z,4.97
2017-12-25T00:09:31.908Z,5.00
2017-12-25T00:12:00.194Z,4.43
2017-12-25T00:14:28.457Z,4.87
2017-12-25T00:16:56.708Z,5.70
2017-12-25T00:19:24.992Z,4.73
2017-12-25T00:21:53.255Z,4.80
2017-12-25T00:24:22.507Z,5.30
2017-12-25T00:26:50.761Z,5.07
2017-12-25T00:29:19.054Z,4.80
2017-12-25T00:31:47.336Z,5.60
2017-12-25T00:34:15.612Z,4.87
2017-12-25T00:36:43.888Z,3.90
2017-12-25T00:39:12.161Z,5.00
2017-12-25T00:41:40.475Z,3.93
2017-12-25T00:44:09.511Z,4.10
2017-12-25T00:46:37.807Z,4.67
2017-12-25T00:49:06.094Z,4.40
2017-12-25T00:51:34.363Z,4.77
2017-12-25T00:54:02.631Z,4.37
2017-12-25T00:56:30.921Z,5.10
2017-12-25T00:58:59.191Z,5.33
2017-12-25T01:01:27.464Z,4.43
2017-12-25T01:03:55.857Z,4.20
2017-12-25T01:06:24.125Z,3.90
2017-12-25T01:08:52.384Z,4.23
2017-12-25T01:11:20.684Z,4.30
2017-12-25T01:13:48.939Z,4.83
2017-12-25T01:16:17.245Z,6.43
2017-12-25T01:18:45.522Z,5.20
2017-12-25T01:21:13.891Z,4.20
2017-12-25T01:23:42.161Z,3.67
2017-12-25T01:26:10.424Z,4.50
2017-12-25T01:28:38.708Z,5.03
2017-12-25T01:31:07.010Z,4.43
2017-12-25T01:33:35.268Z,4.50
2017-12-25T01:36:03.532Z,4.23
2017-12-25T01:38:31.946Z,4.43
2017-12-25T01:41:00.183Z,4.70
2017-12-25T01:43:28.440Z,4.23
2017-12-25T01:45:56.719Z,3.50
2017-12-25T01:48:25.051Z,3.30
2017-12-25T01:50:53.329Z,3.60
2017-12-25T01:53:22.292Z,4.03
2017-12-25T01:55:50.582Z,3.70
2017-12-25T01:58:19.678Z,4.43
2017-12-25T02:00:54.813Z,4.40
2017-12-25T02:03:23.108Z,3.50
2017-12-25T02:08:53.774Z,3.10
2017-12-25T02:11:22.141Z,3.27
2017-12-25T02:13:50.417Z,3.10
2017-12-25T02:16:18.685Z,3.00
2017-12-25T02:18:46.972Z,3.60
2017-12-25T02:21:15.236Z,2.77
2017-12-25T02:23:43.526Z,3.60
2017-12-25T02:26:11.771Z,2.70
2017-12-25T02:28:40.031Z,3.20
2017-12-25T02:31:09.061Z,2.80
2017-12-25T02:33:37.347Z,3.23
2017-12-25T02:36:05.634Z,3.40
2017-12-25T02:38:33.884Z,3.03
2017-12-25T02:41:02.174Z,3.70
2017-12-25T02:43:30.426Z,3.33
2017-12-25T02:45:58.715Z,3.10
2017-12-25T02:48:27.017Z,3.53
2017-12-25T02:50:55.277Z,3.17
2017-12-25T02:53:23.561Z,3.20
2017-12-25T02:55:51.813Z,3.00
2017-12-25T02:58:20.124Z,2.90
2017-12-25T03:00:48.394Z,2.30
2017-12-25T03:03:16.671Z,3.33
2017-12-25T03:05:44.965Z,3.30
2017-12-25T03:08:14.768Z,2.90
2017-12-25T03:10:43.050Z,3.00
2017-12-25T03:13:11.316Z,2.23
2017-12-25T03:15:39.601Z,2.43
2017-12-25T03:18:07.863Z,2.43
2017-12-25T03:20:36.153Z,2.43
2017-12-25T03:23:04.429Z,2.40
2017-12-25T03:25:32.703Z,2.37
2017-12-25T03:28:00.968Z,2.93
2017-12-25T03:30:29.270Z,1.97
2017-12-25T03:32:57.552Z,2.47
2017-12-25T03:35:25.919Z,2.40
2017-12-25T03:37:54.193Z,2.13
2017-12-25T03:40:22.468Z,2.73
2017-12-25T03:42:50.856Z,3.30
2017-12-25T03:45:19.107Z,2.10
2017-12-25T03:47:47.351Z,1.80
2017-12-25T03:50:16.412Z,2.37
2017-12-25T03:52:44.681Z,2.07
2017-12-25T03:55:12.929Z,2.00
2017-12-25T03:57:41.199Z,1.90
2017-12-25T04:00:09.452Z,1.50
2017-12-25T04:02:38.502Z,1.67
2017-12-25T04:05:06.754Z,2.00
2017-12-25T04:07:35.072Z,1.50
2017-12-25T04:10:03.327Z,1.30
2017-12-25T04:12:31.624Z,1.20
2017-12-25T04:14:59.903Z,1.20
2017-12-25T04:17:28.164Z,1.30
2017-12-25T04:19:56.446Z,1.33
2017-12-25T04:22:24.687Z,0.90
2017-12-25T04:24:52.972Z,1.17
2017-12-25T04:27:21.273Z,1.00
2017-12-25T04:29:49.533Z,1.07
2017-12-25T04:32:17.824Z,1.13
2017-12-25T04:34:46.059Z,1.10
2017-12-25T04:37:14.340Z,0.90
2017-12-25T04:39:42.650Z,0.90
2017-12-25T04:42:10.938Z,0.97
2017-12-25T04:44:39.187Z,1.37
2017-12-25T04:47:07.444Z,1.30
2017-12-25T04:49:35.716Z,1.60
2017-12-25T04:52:04.147Z,1.20
2017-12-25T04:54:32.422Z,1.60
2017-12-25T04:57:00.665Z,2.10
2017-12-25T04:59:28.941Z,1.60
2017-12-25T05:01:57.219Z,1.70
2017-12-25T05:04:25.471Z,2.07
2017-12-25T05:06:54.500Z,2.27
2017-12-25T05:09:22.799Z,2.20
2017-12-25T05:11:51.052Z,2.03
2017-12-25T05:14:19.343Z,2.63
2017-12-25T05:16:47.835Z,2.70
2017-12-25T05:19:16.075Z,3.07
2017-12-25T05:21:44.391Z,3.43
2017-12-25T05:24:12.661Z,3.37
2017-12-25T05:26:40.908Z,2.93
2017-12-25T05:29:09.194Z,2.77
2017-12-25T05:31:37.441Z,2.63
2017-12-25T05:34:06.493Z,2.90
2017-12-25T05:36:34.743Z,2.63
2017-12-25T05:39:02.994Z,2.60
2017-12-25T05:41:32.793Z,2.73
2017-12-25T05:44:01.129Z,4.00
2017-12-25T05:46:29.424Z,2.90
2017-12-25T05:48:57.686Z,3.70
2017-12-25T05:51:26.068Z,4.23
2017-12-25T05:53:54.487Z,4.57
2017-12-25T05:56:23.546Z,4.30
2017-12-25T05:58:51.917Z,3.87
2017-12-25T06:01:20.172Z,3.87
2017-12-25T06:03:48.481Z,4.10
2017-12-25T06:06:16.720Z,3.93
2017-12-25T06:08:45.042Z,4.17
2017-12-25T06:11:13.286Z,3.93
2017-12-25T06:13:41.540Z,3.43
2017-12-25T06:16:09.862Z,4.47
2017-12-25T06:18:38.116Z,3.80
2017-12-25T06:21:06.401Z,4.13
2017-12-25T06:23:34.693Z,4.10
2017-12-25T06:26:03.073Z,4.17
2017-12-25T06:28:31.322Z,3.60
2017-12-25T06:30:59.577Z,3.80
2017-12-25T06:33:27.903Z,3.47
2017-12-25T06:35:56.195Z,3.53
2017-12-25T06:38:24.469Z,3.00
2017-12-25T06:40:52.737Z,2.60
2017-12-25T06:43:20.998Z,3.93
2017-12-25T06:45:49.273Z,3.23
2017-12-25T06:48:17.521Z,2.80
2017-12-25T06:50:45.852Z,3.03
2017-12-25T06:53:14.107Z,3.03
2017-12-25T06:55:42.368Z,3.23
2017-12-25T06:58:10.665Z,3.03
2017-12-25T07:00:38.928Z,3.07
2017-12-25T07:03:07.213Z,3.90
2017-12-25T07:05:35.456Z,3.50
2017-12-25T07:08:03.719Z,3.10
2017-12-25T07:10:32.949Z,3.57
2017-12-25T07:13:01.211Z,3.00
2017-12-25T07:15:29.477Z,3.60
2017-12-25T07:17:58.536Z,3.40
2017-12-25T07:20:26.892Z,3.60
2017-12-25T07:22:55.167Z,3.30
2017-12-25T07:25:23.448Z,3.53
2017-12-25T07:27:51.710Z,3.50
2017-12-25T07:30:19.965Z,3.53
2017-12-25T07:32:48.235Z,3.87
2017-12-25T07:35:16.502Z,3.63
2017-12-25T07:37:45.536Z,3.60
2017-12-25T07:40:13.789Z,3.17
2017-12-25T07:42:42.123Z,3.40
2017-12-25T07:45:10.401Z,3.17
2017-12-25T07:47:38.658Z,2.80
2017-12-25T07:50:06.920Z,2.63
2017-12-25T07:52:35.218Z,2.93
2017-12-25T07:55:03.700Z,3.10
2017-12-25T07:57:31.932Z,2.10
2017-12-25T08:00:00.221Z,3.17
2017-12-25T08:02:28.482Z,2.50
2017-12-25T08:04:57.499Z,3.13
2017-12-25T08:07:25.945Z,2.13
2017-12-25T08:09:54.285Z,2.90
2017-12-25T08:12:22.559Z,2.07
2017-12-25T08:14:50.803Z,2.20
2017-12-25T08:17:19.094Z,2.40
2017-12-25T08:19:47.349Z,2.07
2017-12-25T08:22:15.591Z,2.13
2017-12-25T08:24:44.060Z,1.87
2017-12-25T08:27:12.303Z,2.03
2017-12-25T08:29:40.578Z,2.10
2017-12-25T08:32:08.881Z,1.70
2017-12-25T08:34:37.248Z,1.73
2017-12-25T08:37:05.638Z,1.70
2017-12-25T08:39:33.932Z,2.77
2017-12-25T08:42:03.704Z,2.10
2017-12-25T08:44:31.968Z,2.03
2017-12-25T08:47:00.251Z,1.60
2017-12-25T08:49:28.520Z,1.60
2017-12-25T08:51:56.819Z,1.60
2017-12-25T08:54:25.073Z,1.67
2017-12-25T08:56:53.393Z,1.13
2017-12-25T08:59:21.667Z,1.70
2017-12-25T09:01:49.925Z,2.30
2017-12-25T09:04:18.199Z,1.60
2017-12-25T09:06:46.524Z,1.70
2017-12-25T09:09:16.294Z,1.33
2017-12-25T09:11:44.771Z,1.40
2017-12-25T09:14:13.060Z,1.30
2017-12-25T09:16:41.378Z,1.37
2017-12-25T09:19:09.626Z,1.53
2017-12-25T09:21:37.904Z,1.07
2017-12-25T09:24:06.168Z,1.40
2017-12-25T09:26:34.493Z,1.30
2017-12-25T09:29:03.513Z,1.10
2017-12-25T09:31:31.791Z,1.00
2017-12-25T09:34:00.095Z,1.20
2017-12-25T09:36:28.350Z,0.90
2017-12-25T09:38:56.637Z,0.90
2017-12-25T09:41:24.893Z,0.93
2017-12-25T09:43:53.168Z,1.20
2017-12-25T09:46:21.502Z,1.10
2017-12-25T09:48:49.870Z,0.90
2017-12-25T09:51:18.142Z,1.00
2017-12-25T09:53:46.387Z,1.10
2017-12-25T09:56:14.652Z,1.30
2017-12-25T09:58:42.890Z,1.10
2017-12-25T10:01:11.192Z,0.87
2017-12-25T10:03:40.216Z,0.80
2017-12-25T10:06:08.528Z,1.00
2017-12-25T10:08:36.791Z,2.10
2017-12-25T10:11:05.044Z,3.90
2017-12-25T10:13:33.330Z,1.50
2017-12-25T10:16:01.586Z,1.03
2017-12-25T10:18:29.905Z,1.17
2017-12-25T10:20:58.165Z,1.17
2017-12-25T10:23:26.464Z,2.13
2017-12-25T10:25:54.747Z,1.53
2017-12-25T10:28:23.024Z,1.90
2017-12-25T10:30:51.284Z,1.70
2017-12-25T10:33:19.578Z,1.33
2017-12-25T10:35:47.863Z,1.40
2017-12-25T10:38:16.109Z,1.43
2017-12-25T10:40:44.425Z,1.27
2017-12-25T10:43:12.803Z,1.00
2017-12-25T10:45:41.061Z,1.50
2017-12-25T10:48:09.445Z,1.10
2017-12-25T10:50:37.721Z,1.13
2017-12-25T10:53:06.002Z,1.10
2017-12-25T10:55:34.255Z,1.37
2017-12-25T10:58:02.501Z,1.40
2017-12-25T11:00:36.383Z,1.47
2017-12-25T11:03:04.660Z,2.00
2017-12-25T11:05:32.924Z,1.27
2017-12-25T11:08:01.289Z,1.43
2017-12-25T11:10:29.541Z,1.10
2017-12-25T11:12:57.838Z,1.57
2017-12-25T11:15:26.088Z,1.33
2017-12-25T11:17:54.405Z,1.50
2017-12-25T11:20:22.661Z,1.60
2017-12-25T11:22:50.921Z,1.63
2017-12-25T11:25:19.195Z,1.30
2017-12-25T11:27:47.457Z,1.30
2017-12-25T11:30:15.780Z,1.60
2017-12-25T11:32:44.053Z,1.50
2017-12-25T11:35:12.332Z,1.83
2017-12-25T11:37:40.576Z,1.27
2017-12-25T11:40:08.831Z,1.83
2017-12-25T11:42:38.091Z,3.77
2017-12-25T11:45:06.333Z,2.70
2017-12-25T11:47:34.643Z,1.63
2017-12-25T11:50:02.914Z,1.80
2017-12-25T11:52:31.160Z,1.47
2017-12-25T11:54:59.433Z,2.00
2017-12-25T11:57:27.689Z,2.08
2017-12-25T11:59:56.728Z,2.27
2017-12-25T12:02:25.001Z,1.23
2017-12-25T12:04:53.315Z,1.70
2017-12-25T12:07:21.679Z,1.53
2017-12-25T12:09:49.955Z,1.50
2017-12-25T12:12:18.319Z,1.40
2017-12-25T12:14:46.623Z,1.27
2017-12-25T12:17:14.985Z,1.50
2017-12-25T12:19:43.267Z,1.63
2017-12-25T12:22:11.524Z,1.43
2017-12-25T12:24:39.817Z,1.67
2017-12-25T12:27:08.068Z,1.03
2017-12-25T12:29:36.342Z,1.63
2017-12-25T12:32:04.587Z,1.37
2017-12-25T12:34:33.749Z,1.10
2017-12-25T12:37:02.002Z,1.17
2017-12-25T12:39:30.260Z,1.10
2017-12-25T12:41:58.532Z,0.90
2017-12-25T12:44:26.848Z,0.70
2017-12-25T12:46:55.235Z,0.93
2017-12-25T12:49:23.493Z,0.83
2017-12-25T12:51:51.785Z,0.90
2017-12-25T12:54:20.049Z,1.33
2017-12-25T12:56:48.331Z,1.00
2017-12-25T12:59:16.606Z,1.13
2017-12-25T13:01:44.867Z,1.03
2017-12-25T13:04:13.179Z,1.20
2017-12-25T13:06:41.555Z,1.10
2017-12-25T13:09:09.830Z,1.00
2017-12-25T13:11:38.129Z,2.00
2017-12-25T13:14:06.362Z,1.07
2017-12-25T13:16:34.640Z,1.17
2017-12-25T13:19:02.894Z,1.53
2017-12-25T13:21:31.174Z,1.50
2017-12-25T13:23:59.437Z,1.90
2017-12-25T13:26:28.487Z,1.50
2017-12-25T13:28:56.753Z,1.50
2017-12-25T13:31:25.041Z,1.67
2017-12-25T13:33:53.309Z,2.17
2017-12-25T13:36:21.570Z,1.57
2017-12-25T13:38:49.849Z,1.50
2017-12-25T13:41:18.102Z,1.70
2017-12-25T13:43:46.531Z,1.50
2017-12-25T13:46:14.783Z,1.80
2017-12-25T13:48:43.036Z,1.87
2017-12-25T13:51:11.303Z,1.73
2017-12-25T13:53:40.324Z,1.57
2017-12-25T13:56:08.606Z,1.73
2017-12-25T13:58:36.855Z,1.57
2017-12-25T14:01:06.808Z,1.70
2017-12-25T14:03:35.094Z,1.70
2017-12-25T14:06:03.350Z,1.57
2017-12-25T14:08:31.628Z,1.53
2017-12-25T14:10:59.886Z,2.03
2017-12-25T14:13:28.160Z,1.40
2017-12-25T14:15:56.415Z,1.77
2017-12-25T14:18:24.676Z,1.90
2017-12-25T14:20:53.052Z,2.00
2017-12-25T14:23:21.307Z,1.70
2017-12-25T14:25:49.559Z,1.70
2017-12-25T14:28:17.844Z,1.70
2017-12-25T14:30:46.109Z,1.73
2017-12-25T14:33:14.359Z,1.27
2017-12-25T14:35:43.393Z,1.63
2017-12-25T14:38:11.701Z,1.50
2017-12-25T14:40:40.178Z,1.77
2017-12-25T14:43:08.457Z,1.43
2017-12-25T14:45:36.732Z,1.73
2017-12-25T14:48:04.991Z,1.20
2017-12-25T14:50:33.264Z,1.47
2017-12-25T14:53:01.517Z,1.80
2017-12-25T14:55:29.802Z,1.33
2017-12-25T14:57:58.115Z,1.53
2017-12-25T15:00:27.140Z,1.30
2017-12-25T15:02:56.199Z,1.20
2017-12-25T15:05:24.453Z,1.00
2017-12-25T15:07:52.740Z,1.27
2017-12-25T15:10:21.061Z,1.00
2017-12-25T15:12:49.315Z,1.20
2017-12-25T15:15:17.590Z,1.17
2017-12-25T15:17:46.635Z,1.30
2017-12-25T15:20:14.909Z,1.60
2017-12-25T15:22:43.167Z,1.60
2017-12-25T15:25:12.226Z,1.27
2017-12-25T15:27:40.463Z,1.60
2017-12-25T15:30:08.736Z,1.13
2017-12-25T15:32:36.995Z,1.53
2017-12-25T15:35:06.045Z,1.70
2017-12-25T15:37:34.304Z,1.07
2017-12-25T15:40:02.709Z,1.33
2017-12-25T15:42:31.082Z,0.90
2017-12-25T15:44:59.325Z,1.03
2017-12-25T15:47:27.608Z,1.13
2017-12-25T15:49:55.861Z,1.27
2017-12-25T15:52:25.010Z,1.20
2017-12-25T15:54:53.280Z,1.37
2017-12-25T15:57:21.556Z,1.30
2017-12-25T15:59:49.809Z,1.30
2017-12-25T16:02:18.063Z,1.13
2017-12-25T16:04:47.317Z,1.43
2017-12-25T16:07:15.553Z,1.77
2017-12-25T16:09:43.816Z,1.30
2017-12-25T16:12:12.843Z,1.17
2017-12-25T16:14:41.123Z,1.47
2017-12-25T16:17:09.418Z,1.23
2017-12-25T16:19:37.797Z,0.90
2017-12-25T16:22:06.072Z,1.40
2017-12-25T16:24:34.323Z,1.30
2017-12-25T16:27:02.652Z,1.60
2017-12-25T16:29:30.880Z,1.50
2017-12-25T16:31:59.153Z,1.80
2017-12-25T16:34:27.439Z,1.50
2017-12-25T16:36:55.739Z,1.63
2017-12-25T16:39:23.974Z,1.60
2017-12-25T16:41:52.392Z,1.50
2017-12-25T16:44:20.658Z,1.97
2017-12-25T16:46:48.913Z,1.37
2017-12-25T16:49:17.188Z,1.83
2017-12-25T16:51:45.463Z,1.40
2017-12-25T16:54:13.782Z,1.70
2017-12-25T16:56:42.039Z,8.40
2017-12-25T16:59:10.310Z,5.60
2017-12-25T17:01:38.600Z,1.80
2017-12-25T17:04:06.861Z,1.60
2017-12-25T17:06:35.129Z,1.70
2017-12-25T17:09:03.379Z,1.80
2017-12-25T17:11:32.422Z,1.90
2017-12-25T17:14:00.709Z,1.37
2017-12-25T17:16:28.986Z,1.47
2017-12-25T17:18:57.252Z,1.87
2017-12-25T17:21:25.536Z,1.83
2017-12-25T17:23:53.784Z,2.13
2017-12-25T17:26:22.034Z,1.43
2017-12-25T17:28:51.191Z,1.50
2017-12-25T17:31:19.424Z,1.07
2017-12-25T17:33:47.741Z,1.80
2017-12-25T17:36:16.015Z,3.43
2017-12-25T17:38:44.281Z,1.70
2017-12-25T17:41:12.532Z,1.73
2017-12-25T17:43:40.804Z,2.07
2017-12-25T17:46:09.057Z,1.10
2017-12-25T17:48:38.094Z,1.40
2017-12-25T17:51:06.365Z,1.70
2017-12-25T17:53:34.612Z,1.80
2017-12-25T17:56:03.653Z,1.33
2017-12-25T17:58:31.943Z,2.17
2017-12-25T18:01:00.207Z,1.47
2017-12-25T18:03:28.456Z,1.63
2017-12-25T18:05:56.796Z,1.37
2017-12-25T18:08:25.058Z,1.40
2017-12-25T18:10:53.319Z,1.80
2017-12-25T18:13:21.591Z,1.53
2017-12-25T18:15:49.832Z,1.30
2017-12-25T18:18:18.866Z,1.77
2017-12-25T18:20:47.149Z,1.60
2017-12-25T18:23:15.542Z,1.90
2017-12-25T18:25:43.789Z,2.07
2017-12-25T18:28:12.076Z,1.67
2017-12-25T18:30:40.320Z,2.17
2017-12-25T18:33:09.384Z,2.20
2017-12-25T18:35:37.845Z,2.13
2017-12-25T18:38:06.081Z,2.07
2017-12-25T18:40:34.351Z,2.30
2017-12-25T18:43:03.378Z,1.83
2017-12-25T18:45:31.669Z,1.97
2017-12-25T18:47:59.921Z,2.00
2017-12-25T18:50:28.197Z,2.20
2017-12-25T18:52:56.448Z,1.40
2017-12-25T18:55:25.598Z,2.00
2017-12-25T18:57:54.737Z,1.60
2017-12-25T19:00:23.751Z,1.73
2017-12-25T19:02:52.065Z,2.30
2017-12-25T19:05:20.343Z,1.47
2017-12-25T19:07:48.619Z,1.67
2017-12-25T19:10:16.899Z,1.63
2017-12-25T19:12:45.160Z,1.40
2017-12-25T19:15:13.409Z,1.83
2017-12-25T19:17:42.453Z,1.70
2017-12-25T19:20:10.700Z,2.20
2017-12-25T19:22:39.010Z,1.70
2017-12-25T19:25:07.265Z,1.60
2017-12-25T19:27:36.691Z,2.23
2017-12-25T19:30:05.067Z,1.70
2017-12-25T19:32:33.316Z,2.23
2017-12-25T19:35:01.593Z,2.20
2017-12-25T19:37:29.904Z,1.70
2017-12-25T19:39:58.175Z,2.33
2017-12-25T19:42:26.465Z,1.73
2017-12-25T19:44:54.734Z,2.63
2017-12-25T19:47:23.108Z,2.13
2017-12-25T19:49:51.356Z,1.83
2017-12-25T19:52:19.656Z,1.60
2017-12-25T19:54:47.899Z,2.57
2017-12-25T19:57:16.189Z,2.57
2017-12-25T19:59:44.442Z,1.80
2017-12-25T20:02:13.610Z,2.10
2017-12-25T20:04:41.868Z,2.93
2017-12-25T20:07:10.125Z,4.00
2017-12-25T20:09:38.399Z,2.63
2017-12-25T20:12:06.662Z,2.00
2017-12-25T20:14:35.001Z,2.83
2017-12-25T20:17:03.214Z,2.30
2017-12-25T20:19:31.614Z,2.70
2017-12-25T20:21:59.863Z,2.87
2017-12-25T20:24:28.126Z,2.77
2017-12-25T20:26:57.177Z,3.40
2017-12-25T20:29:25.476Z,3.33
2017-12-25T20:31:53.745Z,3.20
2017-12-25T20:34:22.119Z,3.27
2017-12-25T20:36:50.488Z,2.63
2017-12-25T20:39:18.748Z,3.47
2017-12-25T20:41:47.036Z,3.50
2017-12-25T20:44:15.437Z,2.97
2017-12-25T20:46:43.712Z,3.10
2017-12-25T20:49:12.088Z,3.77
2017-12-25T20:51:40.335Z,4.10
2017-12-25T20:54:08.632Z,3.30
2017-12-25T20:56:36.888Z,3.33
2017-12-25T20:59:05.137Z,3.10
2017-12-25T21:01:34.180Z,5.07
2017-12-25T21:04:02.565Z,4.40
2017-12-25T21:06:30.852Z,3.07
2017-12-25T21:08:59.134Z,3.27
2017-12-25T21:11:27.406Z,3.50
2017-12-25T21:13:55.789Z,3.90
2017-12-25T21:16:31.977Z,3.73
2017-12-25T21:19:01.866Z,2.87
2017-12-25T21:21:30.223Z,2.90
2017-12-25T21:23:58.492Z,2.67
2017-12-25T21:26:26.758Z,2.97
2017-12-25T21:28:55.026Z,2.40
2017-12-25T21:31:23.276Z,2.93
2017-12-25T21:33:52.317Z,2.70
2017-12-25T21:36:20.625Z,2.73
2017-12-25T21:38:49.000Z,2.77
2017-12-25T21:41:17.266Z,3.27
2017-12-25T21:43:45.524Z,3.00
2017-12-25T21:46:13.788Z,3.27
2017-12-25T21:48:42.057Z,2.80
2017-12-25T21:51:10.326Z,3.60
2017-12-25T21:53:38.642Z,2.90
2017-12-25T21:56:07.023Z,2.63
2017-12-25T21:58:35.271Z,2.90
2017-12-25T22:01:03.542Z,3.37
2017-12-25T22:03:31.820Z,6.80
2017-12-25T22:06:00.105Z,3.10
2017-12-25T22:08:28.381Z,3.07
2017-12-25T22:10:56.646Z,3.73
2017-12-25T22:13:24.922Z,3.43
2017-12-25T22:15:53.956Z,3.57
2017-12-25T22:18:22.240Z,3.53
2017-12-25T22:20:50.495Z,3.60
2017-12-25T22:23:18.797Z,3.50
2017-12-25T22:25:47.048Z,5.37
2017-12-25T22:28:15.316Z,4.77
2017-12-25T22:30:43.576Z,6.90
2017-12-25T22:33:11.828Z,5.03
2017-12-25T22:35:41.615Z,4.63
2017-12-25T22:38:09.898Z,4.80
2017-12-25T22:40:38.174Z,3.70
2017-12-25T22:43:06.434Z,4.10
2017-12-25T22:45:34.731Z,4.50
2017-12-25T22:48:03.141Z,4.60
2017-12-25T22:50:31.437Z,4.73
2017-12-25T22:52:59.708Z,4.73
2017-12-25T22:55:28.001Z,4.93
2017-12-25T22:57:56.271Z,5.40
2017-12-25T23:00:24.572Z,13.53
2017-12-25T23:02:52.935Z,6.20
2017-12-25T23:05:21.209Z,4.20
2017-12-25T23:07:49.454Z,4.43
2017-12-25T23:10:17.736Z,5.50
2017-12-25T23:12:46.060Z,5.13
2017-12-25T23:15:15.103Z,5.43
2017-12-25T23:17:43.353Z,5.03
2017-12-25T23:20:12.399Z,5.13
2017-12-25T23:22:40.649Z,5.17
2017-12-25T23:25:09.340Z,4.77
2017-12-25T23:27:37.587Z,5.83
2017-12-25T23:30:06.622Z,5.70
2017-12-25T23:32:34.894Z,5.13
2017-12-25T23:35:03.151Z,5.73
2017-12-25T23:37:32.201Z,6.50
2017-12-25T23:40:00.506Z,5.13
2017-12-25T23:42:28.855Z,5.57
2017-12-25T23:44:57.132Z,5.53
2017-12-25T23:47:25.408Z,5.70
2017-12-25T23:49:53.884Z,5.53
2017-12-25T23:52:22.128Z,5.23
2017-12-25T23:54:50.394Z,6.70
2017-12-25T23:57:18.661Z,8.13
2017-12-25T23:59:47.695Z,5.60
